Мелбурн, Australia

05:05 AM AEST на 29 Јуни, 2017 (GMT +1000)
Thornbury | | Change Station

Elev 190 ft 37.76 °S, 145.00 °E | Updated 4 seconds ago

Умерено облачно
Умерено облачно
49.5 °F
Feels Like 50 °F
С
0.9
Ветер Променлив Ветер from ССЗ
Gusts 2.0 mph

Денес
High -- | Low -- °F
--% Chance of Precip.
Вчера
High -- | Low -- °F
Precip. -- инчи
Притисок 30.15 инчи
Видливост -9999.0 миљи
Облаци
Лични чувство за темп. со ветерот 50 °F
Точка на kондензација 44 °F
Влажност 82%
Дожд 0.00 инчи
Височина на снег Not available.
7:36 AM 5:10 PM
Првиот квартал, 27% visible
METAR YMML 281830Z 36008KT CAVOK 09/06 Q1021 NOSIG
Притисок 30.15 инчи
Видливост -9999.0 миљи
Облаци
Лични чувство за темп. со ветерот 50 °F
Точка на kондензација 44 °F
Влажност 82%
Дожд 0.00 инчи
Височина на снег Not available.
7:36 AM 5:10 PM
Првиот квартал, 27% visible
METAR YMML 281830Z 36008KT CAVOK 09/06 Q1021 NOSIG

Get Severe Weather Alerts

Thanks for signing up!

Be on the lookout for a verification email in your inbox.

You'll start receiving the daily forecast at 6 AM.

×

10-Day Weather Forecast

×

Almanac

Астрономијата

Jun. 29, 2017 Изгревање Заоѓање
Актуелно време
Граѓанскиот самрак
Наутички самрак
Астрономски самрак
Месечината
Должина на видливата светлина
Должина на денот
Tomorrow will be .
, % of the Moon is Illuminated

Екстреми денес

Country Highs Country Lows

Community

WunderPhotos

Category 6

Welcome to Category 6. This is the collective home for Weather Underground's featured writeups by Dr. Jeff Masters (right), Bob Henson (left), Chris Burt, and other regular contributors.

Nearby

Квалитетот на воздухот

  Квалитетот на воздухот AQ индекс Загадувач
Not available.

Височина на снег

Station Depth Висина

Earthquake Activity

Град Distance Mag. Time & Date
Minimum magnitude displayed is 2.5.

Coastal Water Temperatures

Место Температура

Stations

Nearby Weather Stations

Локација на станицата Темп. Лични чувство за темп. со ветерот Точка на kондензација Влажност Ветер Precip. Elev Ажурирани Тип